createdAt,value
2018-08-25T00:00:54.484Z,0.00
2018-08-25T00:01:54.535Z,0.00
2018-08-25T00:02:54.587Z,0.00
2018-08-25T00:03:54.636Z,0.00
2018-08-25T00:04:54.706Z,0.00
2018-08-25T00:05:54.776Z,0.00
2018-08-25T00:06:54.783Z,0.00
2018-08-25T00:07:54.833Z,0.00
2018-08-25T00:08:54.882Z,0.00
2018-08-25T00:09:54.936Z,0.00
2018-08-25T00:10:55.024Z,0.00
2018-08-25T00:11:55.038Z,0.00
2018-08-25T00:12:55.084Z,0.00
2018-08-25T00:13:55.129Z,0.00
2018-08-25T00:14:55.182Z,0.00
2018-08-25T00:15:55.297Z,0.00
2018-08-25T00:16:55.286Z,0.00
2018-08-25T00:17:55.330Z,0.00
2018-08-25T00:18:55.378Z,0.00
2018-08-25T00:19:55.432Z,0.00
2018-08-25T00:20:55.502Z,0.00
2018-08-25T00:21:55.530Z,0.00
2018-08-25T00:22:55.604Z,0.00
2018-08-25T00:23:55.625Z,0.00
2018-08-25T00:24:55.677Z,0.00
2018-08-25T00:25:55.728Z,0.00
2018-08-25T00:26:55.783Z,0.00
2018-08-25T00:27:55.856Z,0.00
2018-08-25T00:28:55.877Z,0.00
2018-08-25T00:29:55.930Z,0.00
2018-08-25T00:30:55.975Z,0.00
2018-08-25T00:31:56.025Z,0.00
2018-08-25T00:32:56.105Z,0.00
2018-08-25T00:33:56.124Z,0.00
2018-08-25T00:34:56.172Z,0.00
2018-08-25T00:35:56.226Z,0.00
2018-08-25T00:36:56.272Z,0.00
2018-08-25T00:37:56.377Z,0.00
2018-08-25T00:38:56.373Z,0.00
2018-08-25T00:39:56.425Z,0.00
2018-08-25T00:40:56.474Z,0.00
2018-08-25T00:41:56.522Z,0.00
2018-08-25T00:42:56.596Z,0.00
2018-08-25T00:43:56.623Z,0.00
2018-08-25T00:44:56.674Z,0.00
2018-08-25T00:45:56.723Z,0.00
2018-08-25T00:46:56.770Z,0.00
2018-08-25T00:47:56.845Z,0.00
2018-08-25T00:48:56.871Z,0.00
2018-08-25T00:49:56.972Z,0.00
2018-08-25T00:50:56.971Z,0.00
2018-08-25T00:51:57.019Z,0.00
2018-08-25T00:52:57.070Z,0.00
2018-08-25T00:53:57.118Z,0.00
2018-08-25T00:54:57.193Z,0.00
2018-08-25T00:55:57.220Z,0.00
2018-08-25T00:56:57.268Z,0.00
2018-08-25T00:57:57.320Z,0.00
2018-08-25T00:58:57.371Z,0.00
2018-08-25T00:59:57.456Z,0.00
2018-08-25T01:00:57.468Z,0.00
2018-08-25T01:01:57.518Z,0.00
2018-08-25T01:02:57.566Z,0.00
2018-08-25T01:03:57.617Z,0.00
2018-08-25T01:04:57.696Z,0.00
2018-08-25T01:05:57.740Z,0.00
2018-08-25T01:06:57.768Z,0.00
2018-08-25T01:07:57.820Z,0.00
2018-08-25T01:08:57.867Z,0.00
2018-08-25T01:09:57.943Z,0.00
2018-08-25T01:10:57.994Z,0.00
2018-08-25T01:11:58.014Z,0.00
2018-08-25T01:12:58.064Z,0.00
2018-08-25T01:13:58.118Z,0.00
2018-08-25T01:14:58.191Z,0.00
2018-08-25T01:15:58.240Z,0.00
2018-08-25T01:16:58.264Z,0.00
2018-08-25T01:17:58.322Z,0.00
2018-08-25T01:18:58.366Z,0.00
2018-08-25T01:19:58.415Z,0.00
2018-08-25T01:20:58.488Z,0.00
2018-08-25T01:21:58.524Z,0.00
2018-08-25T01:22:58.565Z,0.00
2018-08-25T01:23:58.611Z,0.00
2018-08-25T01:24:58.661Z,0.00
2018-08-25T01:25:58.736Z,0.00
2018-08-25T01:26:58.765Z,0.00
2018-08-25T01:27:58.812Z,0.00
2018-08-25T01:28:59.393Z,0.00
2018-08-25T01:29:58.912Z,0.00
2018-08-25T01:30:59.006Z,0.00
2018-08-25T01:31:59.012Z,0.00
2018-08-25T01:32:59.061Z,0.00
2018-08-25T01:33:59.113Z,0.00
2018-08-25T01:34:59.162Z,0.00
2018-08-25T01:35:59.267Z,0.00
2018-08-25T01:37:00.098Z,0.00
2018-08-25T01:37:59.309Z,0.00
2018-08-25T01:38:59.360Z,0.00
2018-08-25T01:39:59.409Z,0.00
2018-08-25T01:40:59.489Z,0.00
2018-08-25T01:41:59.510Z,0.00
2018-08-25T01:42:59.558Z,0.00
2018-08-25T01:43:59.610Z,0.00
2018-08-25T01:44:59.658Z,0.00
2018-08-25T01:45:59.750Z,0.00
2018-08-25T01:46:59.770Z,0.00
2018-08-25T01:47:59.808Z,0.00
2018-08-25T01:48:59.857Z,0.00
2018-08-25T01:49:59.908Z,0.00
2018-08-25T01:50:59.981Z,0.00
2018-08-25T01:52:00.030Z,0.00
2018-08-25T01:53:00.058Z,0.00
2018-08-25T01:54:00.110Z,0.00
2018-08-25T01:55:00.157Z,0.00
2018-08-25T01:56:00.210Z,0.00
2018-08-25T01:57:00.277Z,0.00
2018-08-25T01:58:00.313Z,0.00
2018-08-25T01:59:00.356Z,0.00
2018-08-25T02:00:00.416Z,0.00
2018-08-25T02:01:00.455Z,0.00
2018-08-25T02:02:00.531Z,0.00
2018-08-25T02:03:00.580Z,0.00
2018-08-25T02:04:00.605Z,0.00
2018-08-25T02:05:00.658Z,0.00
2018-08-25T02:06:00.705Z,0.00
2018-08-25T02:07:00.786Z,0.00
2018-08-25T02:08:00.804Z,0.00
2018-08-25T02:09:00.853Z,0.00
2018-08-25T02:10:00.908Z,0.00
2018-08-25T02:11:00.954Z,0.00
2018-08-25T02:12:01.037Z,0.00
2018-08-25T02:13:01.054Z,0.00
2018-08-25T02:14:01.117Z,0.00
2018-08-25T02:15:01.157Z,0.00
2018-08-25T02:16:01.203Z,0.00
2018-08-25T02:17:01.284Z,0.00
2018-08-25T02:18:01.307Z,0.00
2018-08-25T02:19:01.357Z,0.00
2018-08-25T02:20:01.401Z,0.00
2018-08-25T02:21:01.453Z,0.00
2018-08-25T02:22:01.529Z,0.00
2018-08-25T02:23:01.586Z,0.00
2018-08-25T02:24:01.602Z,0.00
2018-08-25T02:25:01.655Z,0.00
2018-08-25T02:26:01.708Z,0.00
2018-08-25T02:27:01.791Z,0.00
2018-08-25T02:28:01.807Z,0.00
2018-08-25T02:29:01.855Z,0.00
2018-08-25T02:30:01.904Z,0.00
2018-08-25T02:31:01.954Z,0.00
2018-08-25T02:32:02.025Z,0.00
2018-08-25T02:33:02.053Z,0.00
2018-08-25T02:34:02.126Z,0.00
2018-08-25T02:35:02.151Z,0.00
2018-08-25T02:36:02.201Z,0.00
2018-08-25T02:37:02.252Z,0.00
2018-08-25T02:38:02.319Z,0.00
2018-08-25T02:39:02.376Z,0.00
2018-08-25T02:40:02.400Z,0.00
2018-08-25T02:41:02.450Z,0.00
2018-08-25T02:42:02.501Z,0.00
2018-08-25T02:43:02.550Z,0.00
2018-08-25T02:44:02.624Z,0.00
2018-08-25T02:45:02.649Z,0.00
2018-08-25T02:46:03.408Z,0.00
2018-08-25T02:47:03.413Z,0.00
2018-08-25T02:48:02.803Z,0.00
2018-08-25T02:49:02.877Z,0.00
2018-08-25T02:50:02.898Z,0.00
2018-08-25T02:51:02.949Z,0.00
2018-08-25T02:52:02.996Z,0.00
2018-08-25T02:53:03.048Z,0.00
2018-08-25T02:54:03.125Z,0.00
2018-08-25T02:55:03.150Z,0.00
2018-08-25T02:56:03.197Z,0.00
2018-08-25T02:57:03.249Z,0.00
2018-08-25T02:58:03.299Z,0.00
2018-08-25T02:59:03.419Z,0.00
2018-08-25T03:00:03.400Z,0.00
2018-08-25T03:01:03.447Z,0.00
2018-08-25T03:02:03.498Z,0.00
2018-08-25T03:03:04.115Z,0.00
2018-08-25T03:04:03.622Z,0.00
2018-08-25T03:05:03.669Z,0.00
2018-08-25T03:06:03.697Z,0.00
2018-08-25T03:07:03.746Z,0.00
2018-08-25T03:08:03.795Z,0.00
2018-08-25T03:09:03.845Z,0.00
2018-08-25T03:10:03.922Z,0.00
2018-08-25T03:11:03.946Z,0.00
2018-08-25T03:12:03.998Z,0.00
2018-08-25T03:13:04.045Z,0.00
2018-08-25T03:14:04.096Z,0.00
2018-08-25T03:15:04.171Z,0.00
2018-08-25T03:16:04.198Z,0.00
2018-08-25T03:17:04.245Z,0.00
2018-08-25T03:18:04.298Z,0.00
2018-08-25T03:19:04.344Z,0.00
2018-08-25T03:20:04.420Z,0.00
2018-08-25T03:21:04.448Z,0.00
2018-08-25T03:22:04.520Z,0.00
2018-08-25T03:23:04.548Z,0.00
2018-08-25T03:24:04.599Z,0.00
2018-08-25T03:25:04.642Z,0.00
2018-08-25T03:26:04.695Z,0.00
2018-08-25T03:27:04.767Z,0.00
2018-08-25T03:28:04.795Z,0.00
2018-08-25T03:29:04.844Z,0.00
2018-08-25T03:30:04.899Z,0.00
2018-08-25T03:31:04.967Z,0.00
2018-08-25T03:32:04.994Z,0.00
2018-08-25T03:33:05.072Z,0.00
2018-08-25T03:34:05.093Z,0.00
2018-08-25T03:35:05.146Z,0.00
2018-08-25T03:36:05.920Z,0.00
2018-08-25T03:37:05.244Z,0.00
2018-08-25T03:38:05.296Z,0.00
2018-08-25T03:39:05.344Z,0.00
2018-08-25T03:40:05.402Z,0.00
2018-08-25T03:41:05.501Z,0.00
2018-08-25T03:42:05.494Z,0.00
2018-08-25T03:43:05.542Z,0.00
2018-08-25T03:44:05.592Z,0.00
2018-08-25T03:45:05.640Z,0.00
2018-08-25T03:46:05.725Z,0.00
2018-08-25T03:47:05.744Z,0.00
2018-08-25T03:48:05.815Z,0.00
2018-08-25T03:49:05.843Z,0.00
2018-08-25T03:50:05.890Z,0.00
2018-08-25T03:51:05.946Z,0.00
2018-08-25T03:52:06.015Z,0.00
2018-08-25T03:53:06.044Z,0.00
2018-08-25T03:54:06.127Z,0.00
2018-08-25T03:55:06.161Z,0.00
2018-08-25T03:56:06.190Z,0.00
2018-08-25T03:57:06.279Z,0.00
2018-08-25T03:58:06.292Z,0.00
2018-08-25T03:59:06.345Z,0.00
2018-08-25T04:00:06.394Z,0.00
2018-08-25T04:01:06.439Z,0.00
2018-08-25T04:02:06.535Z,0.00
2018-08-25T04:03:06.541Z,0.00
2018-08-25T04:04:06.591Z,0.00
2018-08-25T04:05:06.647Z,0.00
2018-08-25T04:06:06.689Z,0.00
2018-08-25T04:07:06.765Z,0.00
2018-08-25T04:08:06.788Z,0.00
2018-08-25T04:09:06.866Z,0.00
2018-08-25T04:10:06.899Z,0.00
2018-08-25T04:11:06.941Z,0.00
2018-08-25T04:12:06.989Z,0.00
2018-08-25T04:13:07.038Z,0.00
2018-08-25T04:14:07.120Z,0.00
2018-08-25T04:15:07.145Z,0.00
2018-08-25T04:16:07.189Z,0.00
2018-08-25T04:17:07.244Z,0.00
2018-08-25T04:18:07.289Z,0.00
2018-08-25T04:19:07.361Z,0.00
2018-08-25T04:20:07.389Z,0.00
2018-08-25T04:21:08.436Z,0.00
2018-08-25T04:22:07.528Z,0.00
2018-08-25T04:23:07.563Z,0.00
2018-08-25T04:24:07.600Z,0.00
2018-08-25T04:25:07.712Z,0.00
2018-08-25T04:26:07.692Z,0.00
2018-08-25T04:27:07.744Z,0.00
2018-08-25T04:28:07.791Z,0.00
2018-08-25T04:29:07.840Z,0.00
2018-08-25T04:30:08.101Z,0.00
2018-08-25T04:31:07.986Z,0.00
2018-08-25T04:32:07.993Z,0.00
2018-08-25T04:33:08.037Z,0.00
2018-08-25T04:34:08.164Z,0.00
2018-08-25T04:35:09.566Z,0.00
2018-08-25T04:36:09.099Z,0.00
2018-08-25T04:37:09.723Z,0.00
2018-08-25T04:38:09.138Z,0.00
2018-08-25T04:39:09.028Z,0.00
2018-08-25T04:40:09.429Z,0.00
2018-08-25T04:41:09.377Z,0.00
2018-08-25T04:42:09.337Z,0.00
2018-08-25T04:43:09.416Z,0.00
2018-08-25T04:44:09.139Z,0.00
2018-08-25T04:45:09.558Z,0.00
2018-08-25T04:46:09.188Z,0.00
2018-08-25T04:47:09.355Z,0.00
2018-08-25T04:48:08.898Z,0.00
2018-08-25T04:49:09.101Z,0.00
2018-08-25T04:50:09.032Z,0.00
2018-08-25T04:51:09.263Z,5.63
2018-08-25T04:52:09.215Z,5.63
2018-08-25T04:53:09.416Z,5.63
2018-08-25T04:54:09.402Z,5.63
2018-08-25T04:55:20.544Z,11.25
2018-08-25T04:56:09.376Z,16.88
2018-08-25T04:57:09.321Z,16.88
2018-08-25T04:58:09.386Z,16.88
2018-08-25T04:59:09.451Z,16.88
2018-08-25T05:00:09.496Z,16.88
2018-08-25T05:01:09.626Z,22.50
2018-08-25T05:02:09.555Z,16.88
2018-08-25T05:03:09.685Z,16.88
2018-08-25T05:04:09.665Z,16.88
2018-08-25T05:05:09.774Z,16.88
2018-08-25T05:06:10.232Z,11.25
2018-08-25T05:07:09.835Z,11.25
2018-08-25T05:08:09.901Z,11.25
2018-08-25T05:09:09.885Z,16.88
2018-08-25T05:10:09.886Z,16.88
2018-08-25T05:11:09.937Z,16.88
2018-08-25T05:12:10.011Z,16.88
2018-08-25T05:13:10.035Z,16.88
2018-08-25T05:14:10.096Z,22.50
2018-08-25T05:15:10.138Z,22.50
2018-08-25T05:16:10.210Z,22.50
2018-08-25T05:17:10.259Z,22.50
2018-08-25T05:18:10.290Z,22.50
2018-08-25T05:19:10.338Z,22.50
2018-08-25T05:20:10.387Z,22.50
2018-08-25T05:21:10.454Z,28.13
2018-08-25T05:22:10.510Z,28.13
2018-08-25T05:23:10.557Z,28.13
2018-08-25T05:24:10.700Z,33.75
2018-08-25T05:25:10.638Z,33.75
2018-08-25T05:26:10.685Z,39.38
2018-08-25T05:27:10.760Z,45.00
2018-08-25T05:28:10.789Z,45.00
2018-08-25T05:29:10.836Z,39.38
2018-08-25T05:30:10.888Z,39.38
2018-08-25T05:31:13.195Z,39.38
2018-08-25T05:32:11.015Z,45.00
2018-08-25T05:33:11.044Z,50.63
2018-08-25T05:34:11.086Z,50.63
2018-08-25T05:35:11.137Z,45.00
2018-08-25T05:36:11.185Z,39.38
2018-08-25T05:37:12.187Z,39.38
2018-08-25T05:38:11.285Z,39.38
2018-08-25T05:39:11.338Z,39.38
2018-08-25T05:40:11.392Z,45.00
2018-08-25T05:41:11.983Z,39.38
2018-08-25T05:42:11.511Z,39.38
2018-08-25T05:43:11.536Z,39.38
2018-08-25T05:44:11.610Z,39.38
2018-08-25T05:45:11.637Z,39.38
2018-08-25T05:46:11.686Z,45.00
2018-08-25T05:47:11.777Z,45.00
2018-08-25T05:48:11.784Z,39.38
2018-08-25T05:49:11.840Z,39.38
2018-08-25T05:50:11.890Z,33.75
2018-08-25T05:51:11.937Z,33.75
2018-08-25T05:52:12.011Z,39.38
2018-08-25T05:53:12.041Z,39.38
2018-08-25T05:54:12.116Z,39.38
2018-08-25T05:55:12.140Z,45.00
2018-08-25T05:56:12.187Z,45.00
2018-08-25T05:57:12.240Z,45.00
2018-08-25T05:58:12.291Z,45.00
2018-08-25T05:59:12.368Z,45.00
2018-08-25T06:00:12.390Z,45.00
2018-08-25T06:01:12.443Z,45.00
2018-08-25T06:02:12.487Z,45.00
2018-08-25T06:03:12.543Z,45.00
2018-08-25T06:04:12.616Z,45.00
2018-08-25T06:05:12.638Z,50.63
2018-08-25T06:06:12.689Z,50.63
2018-08-25T06:07:13.218Z,56.25
2018-08-25T06:08:12.791Z,56.25
2018-08-25T06:09:12.880Z,56.25
2018-08-25T06:10:13.721Z,56.25
2018-08-25T06:11:12.940Z,61.88
2018-08-25T06:12:12.988Z,61.88
2018-08-25T06:13:13.040Z,61.88
2018-08-25T06:14:13.114Z,61.88
2018-08-25T06:15:14.728Z,61.88
2018-08-25T06:16:13.993Z,67.50
2018-08-25T06:17:13.238Z,67.50
2018-08-25T06:18:13.288Z,67.50
2018-08-25T06:19:14.040Z,61.88
2018-08-25T06:20:13.388Z,61.88
2018-08-25T06:21:13.468Z,61.88
2018-08-25T06:22:13.490Z,61.88
2018-08-25T06:23:13.541Z,56.25
2018-08-25T06:24:13.627Z,50.63
2018-08-25T06:25:13.640Z,50.63
2018-08-25T06:26:13.694Z,50.63
2018-08-25T06:27:13.739Z,45.00
2018-08-25T06:28:13.797Z,45.00
2018-08-25T06:29:13.870Z,50.63
2018-08-25T06:30:13.946Z,50.63
2018-08-25T06:31:13.947Z,50.63
2018-08-25T06:32:13.992Z,56.25
2018-08-25T06:33:15.712Z,61.88
2018-08-25T06:34:14.123Z,67.50
2018-08-25T06:35:15.004Z,78.75
2018-08-25T06:36:14.254Z,84.38
2018-08-25T06:37:14.238Z,90.00
2018-08-25T06:38:14.294Z,95.63
2018-08-25T06:39:14.382Z,95.63
2018-08-25T06:40:14.387Z,95.63
2018-08-25T06:41:14.447Z,95.63
2018-08-25T06:42:14.491Z,95.63
2018-08-25T06:43:14.544Z,101.25
2018-08-25T06:44:14.623Z,112.50
2018-08-25T06:45:14.642Z,118.13
2018-08-25T06:46:14.689Z,123.75
2018-08-25T06:47:14.740Z,129.38
2018-08-25T06:48:14.788Z,140.63
2018-08-25T06:49:14.871Z,146.25
2018-08-25T06:50:14.894Z,140.63
2018-08-25T06:51:14.941Z,129.38
2018-08-25T06:52:14.998Z,118.13
2018-08-25T06:53:15.045Z,112.50
2018-08-25T06:54:16.240Z,106.88
2018-08-25T06:55:15.138Z,106.88
2018-08-25T06:56:15.191Z,106.88
2018-08-25T06:57:15.256Z,106.88
2018-08-25T06:58:18.214Z,106.88
2018-08-25T06:59:15.340Z,106.88
2018-08-25T07:00:15.414Z,106.88
2018-08-25T07:01:19.712Z,106.88
2018-08-25T07:02:15.489Z,106.88
2018-08-25T07:03:15.545Z,112.50
2018-08-25T07:04:15.589Z,118.13
2018-08-25T07:05:15.641Z,135.00
2018-08-25T07:06:16.218Z,146.25
2018-08-25T07:07:15.741Z,151.88
2018-08-25T07:08:16.505Z,157.50
2018-08-25T07:09:15.842Z,163.13
2018-08-25T07:10:15.893Z,151.88
2018-08-25T07:11:15.980Z,151.88
2018-08-25T07:12:16.003Z,151.88
2018-08-25T07:13:16.041Z,151.88
2018-08-25T07:14:16.101Z,163.13
2018-08-25T07:15:16.143Z,163.13
2018-08-25T07:16:16.734Z,168.75
2018-08-25T07:17:16.244Z,174.38
2018-08-25T07:18:17.248Z,163.13
2018-08-25T07:19:16.344Z,157.50
2018-08-25T07:20:16.394Z,157.50
2018-08-25T07:21:16.467Z,157.50
2018-08-25T07:22:16.519Z,151.88
2018-08-25T07:23:16.546Z,151.88
2018-08-25T07:24:16.596Z,146.25
2018-08-25T07:25:16.647Z,140.63
2018-08-25T07:26:16.800Z,135.00
2018-08-25T07:27:16.777Z,129.38
2018-08-25T07:28:16.795Z,135.00
2018-08-25T07:29:16.856Z,146.25
2018-08-25T07:30:16.901Z,157.50
2018-08-25T07:31:16.947Z,174.38
2018-08-25T07:32:17.117Z,185.63
2018-08-25T07:33:17.052Z,185.63
2018-08-25T07:34:18.011Z,208.13
2018-08-25T07:35:17.152Z,241.88
2018-08-25T07:36:17.200Z,264.38
2018-08-25T07:37:17.291Z,270.00
2018-08-25T07:38:17.364Z,270.00
2018-08-25T07:39:17.360Z,264.38
2018-08-25T07:40:17.403Z,253.13
2018-08-25T07:41:17.460Z,253.13
2018-08-25T07:42:17.537Z,258.75
2018-08-25T07:43:17.583Z,270.00
2018-08-25T07:44:17.606Z,275.63
2018-08-25T07:45:18.278Z,281.25
2018-08-25T07:46:17.706Z,286.88
2018-08-25T07:47:17.756Z,281.25
2018-08-25T07:48:17.836Z,270.00
2018-08-25T07:49:17.856Z,253.13
2018-08-25T07:50:17.906Z,253.13
2018-08-25T07:51:17.982Z,253.13
2018-08-25T07:52:18.008Z,264.38
2018-08-25T07:53:18.089Z,270.00
2018-08-25T07:54:18.135Z,275.63
2018-08-25T07:55:18.161Z,275.63
2018-08-25T07:56:18.210Z,270.00
2018-08-25T07:57:18.265Z,275.63
2018-08-25T07:58:18.328Z,286.88
2018-08-25T07:59:18.479Z,286.88
2018-08-25T08:00:18.415Z,286.88
2018-08-25T08:01:18.464Z,270.00
2018-08-25T08:02:18.516Z,253.13
2018-08-25T08:03:18.576Z,241.88
2018-08-25T08:04:19.056Z,230.63
2018-08-25T08:05:18.667Z,230.63
2018-08-25T08:06:18.719Z,230.63
2018-08-25T08:07:18.778Z,230.63
2018-08-25T08:08:18.822Z,213.75
2018-08-25T08:09:18.909Z,202.50
2018-08-25T08:10:18.928Z,196.88
2018-08-25T08:11:19.524Z,196.88
2018-08-25T08:12:19.135Z,202.50
2018-08-25T08:13:19.073Z,213.75
2018-08-25T08:14:19.158Z,213.75
2018-08-25T08:15:19.176Z,208.13
2018-08-25T08:16:19.224Z,196.88
2018-08-25T08:17:19.276Z,191.25
2018-08-25T08:18:19.510Z,185.63
2018-08-25T08:19:19.400Z,185.63
2018-08-25T08:20:19.425Z,191.25
2018-08-25T08:21:19.477Z,191.25
2018-08-25T08:22:19.532Z,191.25
2018-08-25T08:23:19.579Z,191.25
2018-08-25T08:24:19.654Z,191.25
2018-08-25T08:25:19.706Z,185.63
2018-08-25T08:26:19.739Z,180.00
2018-08-25T08:27:19.789Z,174.38
2018-08-25T08:28:21.730Z,174.38
2018-08-25T08:29:19.919Z,174.38
2018-08-25T08:30:19.935Z,174.38
2018-08-25T08:31:19.985Z,163.13
2018-08-25T08:32:20.033Z,157.50
2018-08-25T08:33:20.085Z,168.75
2018-08-25T08:34:20.158Z,180.00
2018-08-25T08:35:20.210Z,174.38
2018-08-25T08:36:20.237Z,174.38
2018-08-25T08:37:20.290Z,180.00
2018-08-25T08:38:20.356Z,185.63
2018-08-25T08:39:20.434Z,168.75
2018-08-25T08:40:20.464Z,168.75
2018-08-25T08:41:20.513Z,163.13
2018-08-25T08:42:20.578Z,157.50
2018-08-25T08:43:20.594Z,146.25
2018-08-25T08:44:20.646Z,129.38
2018-08-25T08:45:20.724Z,118.13
2018-08-25T08:46:20.771Z,112.50
2018-08-25T08:47:20.804Z,112.50
2018-08-25T08:48:20.844Z,112.50
2018-08-25T08:49:20.895Z,123.75
2018-08-25T08:50:20.976Z,140.63
2018-08-25T08:51:21.028Z,151.88
2018-08-25T08:52:21.047Z,151.88
2018-08-25T08:53:21.096Z,157.50
2018-08-25T08:54:21.151Z,168.75
2018-08-25T08:55:21.214Z,163.13
2018-08-25T08:56:21.759Z,157.50
2018-08-25T08:57:21.304Z,157.50
2018-08-25T08:58:21.400Z,163.13
2018-08-25T08:59:21.401Z,168.75
2018-08-25T09:00:22.364Z,174.38
2018-08-25T09:01:21.538Z,185.63
2018-08-25T09:02:21.550Z,191.25
2018-08-25T09:03:23.293Z,191.25
2018-08-25T09:04:21.668Z,191.25
2018-08-25T09:05:21.704Z,196.88
2018-08-25T09:06:23.741Z,202.50
2018-08-25T09:07:21.807Z,196.88
2018-08-25T09:08:21.854Z,174.38
2018-08-25T09:09:21.906Z,140.63
2018-08-25T09:10:21.958Z,112.50
2018-08-25T09:11:22.089Z,118.13
2018-08-25T09:12:22.056Z,135.00
2018-08-25T09:13:22.108Z,146.25
2018-08-25T09:14:22.742Z,151.88
2018-08-25T09:15:22.213Z,146.25
2018-08-25T09:16:22.593Z,140.63
2018-08-25T09:17:22.310Z,135.00
2018-08-25T09:18:22.360Z,135.00
2018-08-25T09:19:22.432Z,140.63
2018-08-25T09:20:22.461Z,157.50
2018-08-25T09:21:22.512Z,157.50
2018-08-25T09:22:22.589Z,146.25
2018-08-25T09:23:22.643Z,135.00
2018-08-25T09:24:22.663Z,123.75
2018-08-25T09:25:22.721Z,118.13
2018-08-25T09:26:22.768Z,129.38
2018-08-25T09:27:22.896Z,129.38
2018-08-25T09:28:22.896Z,106.88
2018-08-25T09:29:22.922Z,90.00
2018-08-25T09:30:22.968Z,73.13
2018-08-25T09:31:23.018Z,73.13
2018-08-25T09:32:23.078Z,73.13
2018-08-25T09:33:23.146Z,78.75
2018-08-25T09:34:23.169Z,78.75
2018-08-25T09:35:23.222Z,78.75
2018-08-25T09:36:24.869Z,78.75
2018-08-25T09:37:23.320Z,84.38
2018-08-25T09:38:23.406Z,84.38
2018-08-25T09:39:23.424Z,78.75
2018-08-25T09:40:23.474Z,73.13
2018-08-25T09:41:23.524Z,84.38
2018-08-25T09:42:23.575Z,95.63
2018-08-25T09:43:23.664Z,106.88
2018-08-25T09:44:23.704Z,106.88
2018-08-25T09:45:23.724Z,106.88
2018-08-25T09:46:23.779Z,106.88
2018-08-25T09:47:23.835Z,106.88
2018-08-25T09:48:23.922Z,101.25
2018-08-25T09:49:23.930Z,90.00
2018-08-25T09:50:23.982Z,90.00
2018-08-25T09:51:24.026Z,95.63
2018-08-25T09:52:24.095Z,101.25
2018-08-25T09:53:24.185Z,112.50
2018-08-25T09:54:24.751Z,129.38
2018-08-25T09:55:24.227Z,140.63
2018-08-25T09:56:24.278Z,151.88
2018-08-25T09:57:24.330Z,157.50
2018-08-25T09:58:24.403Z,163.13
2018-08-25T09:59:24.432Z,151.88
2018-08-25T10:00:24.508Z,135.00
2018-08-25T10:01:24.531Z,123.75
2018-08-25T10:02:24.578Z,135.00
2018-08-25T10:03:24.671Z,157.50
2018-08-25T10:04:24.678Z,174.38
2018-08-25T10:05:24.742Z,180.00
2018-08-25T10:06:24.781Z,180.00
2018-08-25T10:07:24.831Z,174.38
2018-08-25T10:08:24.911Z,168.75
2018-08-25T10:09:25.764Z,180.00
2018-08-25T10:10:25.777Z,196.88
2018-08-25T10:11:27.765Z,196.88
2018-08-25T10:12:27.760Z,191.25
2018-08-25T10:13:26.297Z,191.25
2018-08-25T10:14:25.787Z,191.25
2018-08-25T10:15:25.259Z,196.88
2018-08-25T10:16:26.788Z,202.50
2018-08-25T10:17:25.333Z,185.63
2018-08-25T10:18:25.384Z,168.75
2018-08-25T10:19:25.458Z,163.13
2018-08-25T10:20:33.787Z,168.75
2018-08-25T10:21:25.533Z,180.00
2018-08-25T10:22:25.583Z,174.38
2018-08-25T10:23:28.565Z,168.75
2018-08-25T10:24:25.707Z,185.63
2018-08-25T10:25:25.764Z,213.75
2018-08-25T10:26:30.264Z,230.63
2018-08-25T10:27:27.267Z,241.88
2018-08-25T10:28:29.295Z,264.38
2018-08-25T10:29:25.934Z,286.88
2018-08-25T10:30:26.017Z,298.13
2018-08-25T10:31:26.034Z,292.50
2018-08-25T10:32:26.761Z,281.25
2018-08-25T10:33:26.133Z,275.63
2018-08-25T10:34:26.186Z,264.38
2018-08-25T10:35:26.798Z,230.63
2018-08-25T10:36:26.283Z,202.50
2018-08-25T10:37:27.767Z,202.50
2018-08-25T10:38:26.384Z,202.50
2018-08-25T10:39:27.303Z,213.75
2018-08-25T10:40:27.769Z,213.75
2018-08-25T10:41:26.563Z,225.00
2018-08-25T10:42:31.265Z,236.25
2018-08-25T10:43:31.773Z,241.88
2018-08-25T10:44:28.768Z,247.50
2018-08-25T10:45:26.747Z,253.13
2018-08-25T10:46:29.265Z,253.13
2018-08-25T10:47:26.846Z,241.88
2018-08-25T10:48:26.897Z,236.25
2018-08-25T10:50:29.765Z,225.00
2018-08-25T10:51:30.266Z,225.00
2018-08-25T10:52:27.791Z,225.00
2018-08-25T10:53:28.273Z,219.38
2018-08-25T10:54:27.192Z,208.13
2018-08-25T10:55:27.240Z,202.50
2018-08-25T10:56:29.267Z,191.25
2018-08-25T10:57:29.267Z,191.25
2018-08-25T10:58:29.777Z,191.25
2018-08-25T10:59:27.437Z,185.63
2018-08-25T11:00:27.526Z,180.00
2018-08-25T11:01:27.579Z,174.38
2018-08-25T11:02:29.270Z,168.75
2018-08-25T11:03:27.643Z,163.13
2018-08-25T11:04:27.688Z,157.50
2018-08-25T11:05:27.739Z,140.63
2018-08-25T11:06:29.298Z,118.13
2018-08-25T11:07:28.305Z,101.25
2018-08-25T11:08:29.773Z,90.00
2018-08-25T11:09:27.938Z,101.25
2018-08-25T11:10:27.989Z,129.38
2018-08-25T11:11:28.037Z,163.13
2018-08-25T11:12:28.794Z,163.13
2018-08-25T11:13:31.771Z,135.00
2018-08-25T11:14:30.774Z,123.75
2018-08-25T11:15:29.274Z,106.88
2018-08-25T11:16:29.815Z,95.63
2018-08-25T11:17:28.360Z,95.63
2018-08-25T11:18:28.393Z,95.63
2018-08-25T11:19:28.444Z,84.38
2018-08-25T11:20:28.489Z,73.13
2018-08-25T11:21:28.544Z,73.13
2018-08-25T11:22:28.611Z,84.38
2018-08-25T11:23:28.660Z,90.00
2018-08-25T11:25:29.773Z,84.38
2018-08-25T11:26:28.787Z,78.75
2018-08-25T11:27:30.273Z,84.38
2018-08-25T11:28:30.825Z,106.88
2018-08-25T11:29:28.941Z,129.38
2018-08-25T11:30:29.807Z,163.13
2018-08-25T11:31:29.804Z,196.88
2018-08-25T11:32:32.779Z,208.13
2018-08-25T11:33:29.158Z,202.50
2018-08-25T11:34:29.185Z,191.25
2018-08-25T11:35:30.341Z,196.88
2018-08-25T11:36:29.283Z,208.13
2018-08-25T11:37:33.312Z,219.38
2018-08-25T11:38:29.408Z,213.75
2018-08-25T11:39:29.434Z,213.75
2018-08-25T11:40:29.483Z,185.63
2018-08-25T11:41:29.531Z,163.13
2018-08-25T11:42:29.581Z,174.38
2018-08-25T11:43:29.657Z,168.75
2018-08-25T11:44:29.679Z,157.50
2018-08-25T11:45:29.734Z,157.50
2018-08-25T11:46:29.780Z,157.50
2018-08-25T11:47:29.830Z,180.00
2018-08-25T11:48:29.910Z,219.38
2018-08-25T11:49:29.931Z,275.63
2018-08-25T11:50:29.980Z,281.25
2018-08-25T11:51:30.027Z,270.00
2018-08-25T11:52:30.075Z,247.50
2018-08-25T11:53:30.149Z,213.75
2018-08-25T11:54:30.201Z,180.00
2018-08-25T11:55:30.225Z,208.13
2018-08-25T11:56:30.277Z,196.88
2018-08-25T11:57:30.327Z,180.00
2018-08-25T11:58:30.379Z,208.13
2018-08-25T11:59:30.456Z,241.88
2018-08-25T12:00:30.475Z,264.38
2018-08-25T12:01:30.523Z,264.38
2018-08-25T12:02:30.572Z,258.75
2018-08-25T12:03:30.657Z,253.13
2018-08-25T12:04:30.695Z,241.88
2018-08-25T12:05:30.721Z,230.63
2018-08-25T12:06:30.769Z,213.75
2018-08-25T12:07:30.848Z,196.88
2018-08-25T12:08:30.869Z,180.00
2018-08-25T12:09:31.002Z,202.50
2018-08-25T12:10:30.993Z,219.38
2018-08-25T12:11:31.017Z,225.00
2018-08-25T12:12:31.066Z,230.63
2018-08-25T12:13:31.114Z,236.25
2018-08-25T12:14:31.199Z,230.63
2018-08-25T12:15:31.214Z,225.00
2018-08-25T12:16:31.269Z,225.00
2018-08-25T12:17:31.314Z,219.38
2018-08-25T12:18:31.368Z,208.13
2018-08-25T12:19:31.449Z,202.50
2018-08-25T12:20:35.783Z,196.88
2018-08-25T12:21:31.514Z,196.88
2018-08-25T12:22:31.560Z,202.50
2018-08-25T12:23:31.613Z,196.88
2018-08-25T12:24:31.684Z,196.88
2018-08-25T12:25:31.735Z,196.88
2018-08-25T12:26:31.758Z,185.63
2018-08-25T12:27:31.811Z,191.25
2018-08-25T12:28:31.855Z,202.50
2018-08-25T12:29:31.914Z,208.13
2018-08-25T12:30:32.006Z,196.88
2018-08-25T12:31:32.009Z,185.63
2018-08-25T12:32:32.060Z,168.75
2018-08-25T12:33:32.188Z,163.13
2018-08-25T12:34:32.159Z,163.13
2018-08-25T12:35:32.245Z,163.13
2018-08-25T12:36:32.252Z,157.50
2018-08-25T12:37:32.301Z,146.25
2018-08-25T12:38:32.357Z,140.63
2018-08-25T12:39:32.487Z,146.25
2018-08-25T12:40:32.476Z,146.25
2018-08-25T12:41:32.499Z,146.25
2018-08-25T12:42:32.549Z,140.63
2018-08-25T12:43:32.603Z,135.00
2018-08-25T12:44:32.650Z,135.00
2018-08-25T12:45:32.735Z,135.00
2018-08-25T12:46:32.747Z,135.00
2018-08-25T12:47:32.842Z,135.00
2018-08-25T12:48:32.846Z,129.38
2018-08-25T12:49:32.904Z,123.75
2018-08-25T12:50:32.968Z,123.75
2018-08-25T12:51:33.053Z,118.13
2018-08-25T12:52:33.044Z,112.50
2018-08-25T12:53:33.092Z,112.50
2018-08-25T12:54:33.140Z,118.13